• Join FlightAware (Why Join?)
  • Login
  • US Flag 
09:46AM EDT


 

Airport Tracker/Info


-or-


 

Live Flight TrackerFlight Track Log ✈ SWA1910 ✈ 05-Apr-2013 ✈ KBWI - KRSW

Flight Track Log - Related Links

Times and Time Zones

All times are in EDT time to prevent confusion due to time zone crossing. See the SWA1910 flight status page for this flight to view local times or setup timezone preferences in your user account.

Time Position Orientation Groundspeed Altitude Reporting Facility
EDT Latitude Longitude Course Direction KTS MPH feet Rate Location/Type
08:06PM 39.1333 -76.7500 218° Southwest 236 272 4,200  Level Potomac TRACON
08:07PM 39.0833 -76.7000 142° Southeast 289 333 7,000 2,880 Climbing Potomac TRACON
08:08PM 39.0000 -76.6833 171° South 301 346 9,800 2,700 Climbing Potomac TRACON
08:09PM 38.9000 -76.6833 180° South 351 404 12,500 2,640 Climbing Potomac TRACON
08:10PM 38.8019 -76.6972 186° South 371 427 15,800 2,880 Climbing Washington Center
08:11PM 38.7113 -76.8860 189° South  Level Estimated
08:11PM 38.6956 -76.7114 186° South 376 433 18,800  Level Washington Center
08:12PM 38.5850 -76.7231 185° South 388 447 19,000 660 Climbing Washington Center
08:13PM 38.4683 -76.7133 176° South 400 460 20,200 1,800 Climbing Washington Center
08:14PM 38.3433 -76.6956 174° South 433 498 22,600 2,160 Climbing Washington Center
08:15PM 38.2119 -76.6778 174° South 463 533 24,600 1,740 Climbing Washington Center
08:16PM 38.0747 -76.6600 174° South 478 550 26,100 2,280 Climbing Washington Center
08:17PM 37.9392 -76.6422 174° South 489 563 29,200 2,640 Climbing Washington Center
08:18PM 37.8081 -76.6247 174° South 489 563 31,400 2,400 Climbing Washington Center
08:19PM 37.6789 -76.6100 175° South 482 555 34,000 2,880 Climbing Washington Center
08:20PM 37.5619 -76.5978 175° South 458 527 37,200 2,340 Climbing Washington Center
08:21PM 37.4553 -76.6358 196° South 408 470 38,700 1,200 Climbing Washington Center
08:22PM 37.3528 -76.6708 195° South 402 463 39,700 600 Climbing Washington Center
08:23PM 37.2461 -76.7111 197° South 396 456 40,000 120 Climbing Washington Center
08:24PM 37.1394 -76.7539 198° South 401 461 40,000  Level Washington Center
08:25PM 37.0306 -76.7914 195° South 401 461 40,000  Level Washington Center
08:26PM 36.9258 -76.8311 197° South 401 461 40,000  Level Washington Center
08:27PM 36.8211 -76.8711 197° South 401 461 40,000  Level Washington Center
08:28PM 36.7142 -76.9081 195° South 401 461 40,000  Level Washington Center
08:29PM 36.6075 -76.9453 196° South 401 461 40,000  Level Washington Center
08:30PM 36.5028 -76.9847 197° South 401 461 40,000  Level Washington Center
08:31PM 36.3875 -77.0264 196° South 396 456 40,000  Level Washington Center
08:32PM 36.2847 -77.0633 196° South 396 456 40,000  Level Washington Center
08:33PM 36.1800 -77.0975 195° South 396 456 40,000  Level Washington Center
08:34PM 36.0983 -77.1267 196° South 396 456 40,000  Level Washington Center
08:35PM 35.9872 -77.1681 197° South 391 450 40,000  Level Washington Center
08:36PM 35.8803 -77.2044 195° South 391 450 40,000  Level Washington Center
08:37PM 35.7733 -77.2408 195° South 397 457 40,000  Level Washington Center
08:38PM 35.6664 -77.2769 195° South 402 463 40,000  Level Washington Center
08:39PM 35.5594 -77.3131 195° South 402 463 40,000  Level Washington Center
08:40PM 35.4506 -77.3514 196° South 402 463 40,000  Level Washington Center
08:41PM 35.3436 -77.3872 195° South 402 463 40,000  Level Washington Center
08:42PM 35.2364 -77.4256 196° South 402 463 40,000  Level Washington Center
08:43PM 35.1294 -77.4611 195° South 402 463 40,000  Level Washington Center
08:44PM 35.0225 -77.4967 195° South 402 463 40,000  Level Washington Center
08:45PM 34.9156 -77.5347 196° South 402 463 40,000  Level Washington Center
08:46PM 34.8147 -77.5753 198° South 397 457 40,000  Level Washington Center
08:47PM 34.7056 -77.6106 195° South 397 457 40,000  Level Washington Center
08:48PM 34.5986 -77.6483 196° South 402 463 40,000  Level Washington Center
08:49PM 34.4917 -77.6833 195° South 402 463 40,000  Level Washington Center
08:52PM 34.2600 -77.7625 196° South 394 453 40,000  Level Jacksonville Center
08:53PM 34.1486 -77.7942 193° South 399 459 40,000  Level Jacksonville Center
08:54PM 34.0436 -77.8303 196° South 399 459 40,000  Level Jacksonville Center
08:55PM 33.9306 -77.8694 196° South 394 453 40,000  Level Jacksonville Center
08:56PM 33.8253 -77.9028 195° South 389 448 40,000  Level Jacksonville Center
08:57PM 33.7203 -77.9389 196° South 394 453 40,000  Level Jacksonville Center
08:58PM 33.6153 -77.9722 195° South 394 453 40,000  Level Jacksonville Center
08:59PM 33.5144 -78.0078 196° South 394 453 40,000  Level Jacksonville Center
09:00PM 33.4136 -78.0431 196° South 389 448 40,000  Level Jacksonville Center
09:01PM 33.3128 -78.0808 197° South 389 448 40,000  Level Jacksonville Center
09:02PM 33.2097 -78.1186 197° South 389 448 40,000  Level Jacksonville Center
09:03PM 33.1069 -78.1539 196° South 389 448 40,000  Level Jacksonville Center
09:04PM 33.0039 -78.1942 198° South 389 448 40,000  Level Jacksonville Center
09:05PM 32.9011 -78.2317 197° South 394 453 40,000  Level Jacksonville Center
09:06PM 32.7981 -78.2667 196° South 394 453 40,000  Level Jacksonville Center
09:07PM 32.6969 -78.3039 197° South 394 453 40,000  Level Jacksonville Center
09:08PM 32.5919 -78.3436 198° South 394 453 40,000  Level Jacksonville Center
09:09PM 32.4911 -78.3783 196° South 394 453 40,000  Level Jacksonville Center
09:10PM 32.3881 -78.4153 197° South 394 453 40,000  Level Jacksonville Center
09:11PM 32.2994 -78.4517 199° South 388 447 40,000  Level Jacksonville Center
09:12PM 32.1922 -78.4911 197° South 388 447 40,000  Level Jacksonville Center
09:13PM 32.0811 -78.5333 198° South 388 447 40,000  Level Jacksonville Center
09:14PM 31.9842 -78.5672 197° South 381 438 40,000  Level Jacksonville Center
09:15PM 31.8831 -78.6014 196° South 381 438 40,000  Level Jacksonville Center
09:16PM 31.7842 -78.6403 198° South 376 433 40,000  Level Jacksonville Center
09:17PM 31.6872 -78.6739 196° South 376 433 40,000  Level Jacksonville Center
09:18PM 31.5903 -78.7075 196° South 376 433 40,000  Level Jacksonville Center
09:19PM 31.4933 -78.7436 198° South 369 425 40,000  Level Jacksonville Center
09:20PM 31.3961 -78.7772 196° South 369 425 40,000  Level Jacksonville Center
09:21PM 31.3014 -78.8106 197° South 374 430 40,000  Level Jacksonville Center
09:22PM 31.2022 -78.8464 197° South 374 430 40,000  Level Jacksonville Center
09:23PM 31.1050 -78.8772 195° South 374 430 40,000 -60 Level Jacksonville Center
09:24PM 31.0122 -78.9128 198° South 374 430 39,900  Descending Jacksonville Center
09:25PM 30.8419 -78.9708 196° South 357 411 40,000  Climbing Miami Center
09:26PM 30.7478 -79.0028 196° South 357 411 40,000  Level Miami Center
09:27PM 30.6472 -79.0344 195° South 359 413 40,000  Level Miami Center
09:28PM 30.5614 -79.0664 198° South 352 405 40,000  Level Miami Center
09:29PM 30.4731 -79.1150 205° Southwest 346 398 40,000  Level Miami Center
09:30PM 30.3931 -79.1639 208° Southwest 346 398 40,000  Level Miami Center
09:31PM 30.3089 -79.2172 209° Southwest 338 389 40,000  Level Miami Center
09:32PM 30.2308 -79.2683 210° Southwest 338 389 40,000  Level Miami Center
09:33PM 30.1467 -79.3169 207° Southwest 333 383 40,000 -60 Level Miami Center
09:34PM 30.0603 -79.3700 208° Southwest 333 383 39,900 -600 Descending Miami Center
09:35PM 29.9781 -79.4183 207° Southwest 345 397 38,900 -960 Descending Miami Center
09:36PM 29.8936 -79.4714 209° Southwest 344 396 38,000 -1,320 Descending Miami Center
09:37PM 29.8114 -79.5219 208° Southwest 344 396 36,300 -2,040 Descending Miami Center
09:38PM 29.7269 -79.5725 207° Southwest 338 389 34,000 -2,160 Descending Miami Center
09:39PM 29.6489 -79.6206 208° Southwest 332 382 32,000 -1,020 Descending Miami Center
09:40PM 29.5644 -79.6758 210° Southwest 340 391 32,000  Level Miami Center
09:41PM 29.4819 -79.7283 209° Southwest 340 391 32,000  Level Miami Center
09:42PM 29.3997 -79.7786 208° Southwest 340 391 32,000 -240 Level Miami Center
09:43PM 29.3133 -79.8239 205° Southwest 345 397 31,600 -660 Descending Miami Center
09:44PM 29.2286 -79.8764 208° Southwest 345 397 30,700 -960 Descending Miami Center
09:45PM 29.1378 -79.9308 208° Southwest 352 405 29,700 -960 Descending Miami Center
09:46PM 29.0469 -79.9831 207° Southwest 363 418 28,800 -900 Descending Miami Center
09:47PM 28.9519 -80.0419 208° Southwest 379 436 28,000 -900 Descending Miami Center
09:48PM 28.8547 -80.0983 207° Southwest 384 442 27,100 -900 Descending Miami Center
09:49PM 28.7531 -80.1569 207° Southwest 400 460 26,200 -1,020 Descending Miami Center
09:50PM 28.6411 -80.2222 207° Southwest 410 472 25,100 -1,140 Descending Miami Center
09:51PM 28.5375 -80.2806 206° Southwest 415 478 24,000 -1,140 Descending Miami Center
09:52PM 28.4750 -80.3636 229° Southwest 395 455 22,900 -1,140 Descending Miami Center
09:53PM 28.4217 -80.4869 244° Southwest 389 448 21,800 -1,140 Descending Miami Center
09:54PM 28.3794 -80.5942 246° West 396 456 20,700 -900 Descending Miami Center
09:55PM 28.3347 -80.7036 245° Southwest 396 456 20,000 -360 Descending Miami Center
09:56PM 28.2881 -80.8128 244° Southwest 396 456 20,000  Level Miami Center
09:57PM 28.2450 -80.9267 247° West 391 450 20,000  Level Miami Center
09:58PM 28.2003 -81.0381 246° West 391 450 20,000  Level Miami Center
09:59PM 28.1597 -81.1331 244° Southwest 397 457 20,000  Level Miami Center
10:00PM 28.1100 -81.2583 246° West 397 457 20,000  Level Miami Center
10:01PM 28.0608 -81.3694 243° Southwest 397 457 20,000 -300 Level Miami Center
10:02PM 27.9569 -81.4169 202° Southwest 378 435 19,500 -780 Descending Miami Center
10:03PM 27.8378 -81.4261 184° South 387 445 18,500 -1,200 Descending Miami Center
10:04PM 27.7269 -81.4311 182° South 394 453 17,200 -780 Descending Miami Center
10:05PM 27.6392 -81.4369 183° South 384 442 17,000 -120 Descending Miami Center
10:06PM 27.5492 -81.4475 186° South 354 407 17,000  Level Miami Center
10:07PM 27.4825 -81.5103 220° Southwest 308 354 17,000  Level Miami Center
10:08PM 27.3925 -81.5114 181° South 308 354 17,000 -720 Level Miami Center
10:09PM 27.3053 -81.5031 175° South 318 366 15,600 -1,560 Descending Miami Center
10:10PM 27.2156 -81.4994 178° South 318 366 13,900 -1,800 Descending Miami Center
10:11PM 27.1281 -81.4914 175° South 318 366 12,000 -1,980 Descending Miami Center
10:12PM 27.0428 -81.4856 177° South 318 366 10,000 -1,020 Descending Miami Center
10:13PM 26.9631 -81.4942 185° South 283 326 10,000 -1,200 Level Miami Center
10:14PM 26.8897 -81.5075 189° South 269 310 7,700 -1,860 Descending Miami Center
10:15PM 26.8161 -81.5256 192° South 269 310 6,300 -1,440 Descending Miami Center
10:16PM 26.7528 -81.5439 194° South 269 310 4,900 -1,080 Descending Miami Center
10:17PM 26.6875 -81.5600 192° South 252 290 4,200 -960 Descending Miami Center
10:18PM 26.6381 -81.6019 217° Southwest 214 246 3,000 -1,260 Descending Miami Center
10:20PM 26.5695 -81.7051 233° Southwest  Level Estimated
10:27PM 26.5362 -81.7552 233° Southwest  Level Estimated
10:28PM 26.5362 -81.7552 138° Southeast  Level Estimated
10:29PM 26.5362 -81.7552 138° Southeast  Level Estimated
10:30PM 26.5362 -81.7552 138° Southeast  Level Estimated
10:31PM 26.5362 -81.7552 138° Southeast  Level Estimated